createdAt,value
2022-12-11T00:00:49.276Z,96339.31
2022-12-11T00:11:13.337Z,96339.41
2022-12-11T00:21:15.814Z,96341.75
2022-12-11T00:31:19.270Z,96340.91
2022-12-11T00:41:21.894Z,96345.38
2022-12-11T00:51:24.128Z,96353.09
2022-12-11T01:01:26.512Z,96348.78
2022-12-11T01:11:28.715Z,96355.94
2022-12-11T01:21:30.975Z,96359.50
2022-12-11T01:31:34.125Z,96361.00
2022-12-11T01:41:36.391Z,96360.44
2022-12-11T01:52:12.762Z,96359.72
2022-12-11T02:02:24.634Z,96354.16
2022-12-11T02:12:36.460Z,96361.53
2022-12-11T02:22:53.866Z,96359.91
2022-12-11T02:32:59.094Z,96355.94
2022-12-11T02:43:04.836Z,96352.44
2022-12-11T02:53:07.903Z,96358.41
2022-12-11T03:03:10.131Z,96350.16
2022-12-11T03:13:16.496Z,96351.25
2022-12-11T03:23:28.257Z,96358.44
2022-12-11T03:33:37.284Z,96341.75
2022-12-11T03:43:41.130Z,96345.06
2022-12-11T03:53:44.143Z,96354.47
2022-12-11T04:03:46.351Z,96354.47
2022-12-11T04:14:08.513Z,96347.31
2022-12-11T04:24:16.713Z,96345.16
2022-12-11T04:34:18.953Z,96338.44
2022-12-11T04:44:21.135Z,96316.09
2022-12-11T04:54:23.339Z,96326.25
2022-12-11T05:04:26.278Z,96320.25
2022-12-11T05:14:32.006Z,96318.63
2022-12-11T05:24:34.211Z,96316.38
2022-12-11T05:34:36.431Z,96305.00
2022-12-11T05:44:38.616Z,96315.66
2022-12-11T05:54:41.058Z,96318.19
2022-12-11T06:04:43.213Z,96313.31
2022-12-11T06:14:45.395Z,96324.34
2022-12-11T06:24:48.168Z,96334.22
2022-12-11T06:34:50.383Z,96348.50
2022-12-11T06:44:52.661Z,96349.38
2022-12-11T06:54:55.367Z,96355.75
2022-12-11T07:04:57.691Z,96366.03
2022-12-11T07:14:59.862Z,96360.81
2022-12-11T07:25:02.120Z,96366.53
2022-12-11T07:35:04.853Z,96365.56
2022-12-11T07:45:07.387Z,96370.38
2022-12-11T07:55:10.074Z,96362.03
2022-12-11T08:05:13.370Z,96370.81
2022-12-11T08:15:15.845Z,96375.38
2022-12-11T08:25:18.065Z,96373.22
2022-12-11T08:35:20.552Z,96384.63
2022-12-11T08:45:22.775Z,96380.84
2022-12-11T08:55:25.009Z,96376.00
2022-12-11T09:05:27.248Z,96369.59
2022-12-11T09:15:29.745Z,96372.31
2022-12-11T09:25:31.954Z,96372.28
2022-12-11T09:35:34.156Z,96353.13
2022-12-11T09:45:36.759Z,96352.66
2022-12-11T09:55:57.061Z,96347.03
2022-12-11T10:06:11.135Z,96331.16
2022-12-11T10:16:25.736Z,96323.66
2022-12-11T10:26:29.330Z,96320.38
2022-12-11T10:36:39.615Z,96308.34
2022-12-11T10:46:42.016Z,96303.69
2022-12-11T10:56:48.429Z,96292.03
2022-12-11T11:07:02.422Z,96274.53
2022-12-11T11:17:04.641Z,96262.94
2022-12-11T11:27:23.965Z,96257.03
2022-12-11T11:37:32.393Z,96259.94
2022-12-11T11:47:41.598Z,96263.03
2022-12-11T11:57:49.939Z,96247.72
2022-12-11T12:08:18.914Z,96253.38
2022-12-11T12:18:39.356Z,96237.66
2022-12-11T12:29:26.206Z,96236.97
2022-12-11T12:39:54.284Z,96223.53
2022-12-11T12:49:58.988Z,96234.69
2022-12-11T13:00:01.264Z,96244.28
2022-12-11T13:10:23.061Z,96239.63
2022-12-11T13:20:28.390Z,96245.97
2022-12-11T13:30:30.631Z,96236.69
2022-12-11T13:40:40.257Z,96235.69
2022-12-11T13:50:43.999Z,96241.03
2022-12-11T14:01:04.261Z,96239.97
2022-12-11T14:11:06.688Z,96245.38
2022-12-11T14:21:23.102Z,96253.97
2022-12-11T14:31:43.028Z,96247.91
2022-12-11T14:41:52.893Z,96250.44
2022-12-11T14:51:57.917Z,96252.06
2022-12-11T15:02:21.849Z,96251.63
2022-12-11T15:12:24.513Z,96253.13
2022-12-11T15:22:31.598Z,96246.63
2022-12-11T15:32:33.949Z,96244.78
2022-12-11T15:42:39.973Z,96253.44
2022-12-11T15:52:42.979Z,96256.31
2022-12-11T16:02:46.036Z,96259.84
2022-12-11T16:12:48.389Z,96261.63
2022-12-11T16:22:50.600Z,96262.50
2022-12-11T16:32:53.002Z,96251.50
2022-12-11T16:42:55.245Z,96252.31
2022-12-11T16:52:57.424Z,96258.25
2022-12-11T17:02:59.725Z,96245.69
2022-12-11T17:13:01.985Z,96242.75
2022-12-11T17:23:04.310Z,96258.97
2022-12-11T17:33:06.547Z,96266.50
2022-12-11T17:43:10.385Z,96253.44
2022-12-11T17:53:14.937Z,96252.03
2022-12-11T18:03:17.563Z,96270.19
2022-12-11T18:13:20.718Z,96271.00
2022-12-11T18:23:23.777Z,96286.41
2022-12-11T18:33:26.035Z,96277.06
2022-12-11T18:43:28.296Z,96277.44
2022-12-11T18:53:30.527Z,96270.31
2022-12-11T19:03:32.792Z,96260.72
2022-12-11T19:13:35.419Z,96263.22
2022-12-11T19:23:37.990Z,96244.78
2022-12-11T19:33:41.653Z,96247.59
2022-12-11T19:43:44.330Z,96241.88
2022-12-11T19:53:47.051Z,96242.06
2022-12-11T20:03:49.909Z,96244.50
2022-12-11T20:13:52.283Z,96237.31
2022-12-11T20:23:54.546Z,96239.34
2022-12-11T20:33:57.220Z,96232.59
2022-12-11T20:43:59.606Z,96229.94
2022-12-11T20:54:01.772Z,96212.34
2022-12-11T21:04:04.026Z,96221.19
2022-12-11T21:14:06.420Z,96224.28
2022-12-11T21:24:15.123Z,96223.47
2022-12-11T21:40:12.205Z,96220.53
2022-12-11T21:50:14.447Z,96216.84
2022-12-11T22:00:17.226Z,96219.53
2022-12-11T22:10:19.486Z,96205.63
2022-12-11T22:20:21.671Z,96212.78
2022-12-11T22:30:23.919Z,96201.75
2022-12-11T22:40:26.933Z,96187.72
2022-12-11T22:50:29.093Z,96182.47
2022-12-11T23:00:31.305Z,96189.47
2022-12-11T23:10:33.500Z,96187.34
2022-12-11T23:20:35.808Z,96189.81
2022-12-11T23:30:38.219Z,96186.94
2022-12-11T23:40:40.441Z,96190.19
2022-12-11T23:50:43.456Z,96200.00
